Time;durP1;ratioP1;P1;durP2;ratioP2;P2;SDS_P1;SDS_P2;PMS_P1;PMS_P2;Temp;Humidity;BMP_temperature;BMP_pressure;BME280_temperature;BME280_humidity;BME280_pressure;Samples;Min_cycle;Max_cycle;Signal;HPM_P1;HPM_P2
2022/10/14 00:00:21;;;;;;;3.05;1.80;;;19.90;48.80;;;;;;5133350;28;20088;-10
2022/10/14 00:02:47;;;;;;;2.67;1.85;;;19.80;48.80;;;;;;5133762;28;20085;-10
2022/10/14 00:05:12;;;;;;;2.00;1.75;;;19.80;48.90;;;;;;5133175;28;20402;-10
2022/10/14 00:07:38;;;;;;;2.53;2.10;;;19.90;48.80;;;;;;5133488;28;20058;-10
2022/10/14 00:10:05;;;;;;;2.15;1.90;;;19.90;48.80;;;;;;5133445;28;20099;-11
2022/10/14 00:12:32;;;;;;;2.75;1.83;;;19.80;48.80;;;;;;5133404;27;20080;-10
2022/10/14 00:14:58;;;;;;;2.00;1.80;;;19.90;48.80;;;;;;5136378;28;20394;-10
2022/10/14 00:17:23;;;;;;;2.42;2.03;;;19.90;48.80;;;;;;5136173;28;20050;-11
2022/10/14 00:19:51;;;;;;;1.60;1.50;;;19.90;48.80;;;;;;5136833;28;20050;-10
2022/10/14 00:22:18;;;;;;;1.98;1.77;;;19.80;48.80;;;;;;5136703;28;20051;-10
2022/10/14 00:24:45;;;;;;;2.08;1.88;;;19.80;48.80;;;;;;5118223;28;20069;-10
2022/10/14 00:27:10;;;;;;;2.00;1.80;;;19.80;48.80;;;;;;5136721;28;20447;-10
2022/10/14 00:29:36;;;;;;;2.13;1.75;;;19.90;48.80;;;;;;5136021;28;20138;-10
2022/10/14 00:32:01;;;;;;;2.38;2.17;;;19.80;48.80;;;;;;5136862;28;20127;-10
2022/10/14 00:34:27;;;;;;;2.40;1.98;;;19.80;48.80;;;;;;5117051;28;20047;-10
2022/10/14 00:36:54;;;;;;;2.70;1.88;;;19.90;48.80;;;;;;5116376;28;20047;-10
2022/10/14 00:39:20;;;;;;;2.00;1.80;;;19.80;48.80;;;;;;5118081;28;20390;-10
2022/10/14 00:41:46;;;;;;;2.53;2.10;;;19.80;48.80;;;;;;5136300;28;20104;-10
2022/10/14 00:44:11;;;;;;;3.15;2.28;;;19.80;48.80;;;;;;5136877;28;20059;-10
2022/10/14 00:46:40;;;;;;;1.70;1.60;;;19.80;48.80;;;;;;5136150;28;20055;-10
2022/10/14 00:49:12;;;;;;;2.13;1.85;;;19.80;48.80;;;;;;5136119;28;20479;-10
2022/10/14 00:51:39;;;;;;;2.20;1.77;;;19.80;49.00;;;;;;5117649;28;20043;-10
2022/10/14 00:54:06;;;;;;;1.92;1.80;;;19.80;49.00;;;;;;5117639;28;20051;-10
2022/10/14 00:56:32;;;;;;;2.40;1.98;;;19.80;49.00;;;;;;5136162;28;20069;-10
2022/10/14 00:58:59;;;;;;;3.08;2.05;;;19.80;49.00;;;;;;5136360;28;20100;-10
2022/10/14 01:01:25;;;;;;;1.85;1.70;;;19.80;49.00;;;;;;5136122;28;20051;-10
2022/10/14 01:03:50;;;;;;;2.95;1.83;;;19.80;49.00;;;;;;5136437;28;20433;-10
2022/10/14 01:06:41;;;;;;;2.15;1.70;;;19.80;49.20;;;;;;5117302;28;20039;-10
2022/10/14 01:09:22;;;;;;;2.30;2.10;;;19.70;49.10;;;;;;5134736;28;20062;-10
2022/10/14 01:12:18;;;;;;;2.00;1.80;;;19.70;49.10;;;;;;5116227;28;20051;-10
2022/10/14 01:15:03;;;;;;;2.05;1.80;;;19.70;49.10;;;;;;5136041;28;20375;-10
2022/10/14 01:17:51;;;;;;;1.70;1.60;;;19.80;49.00;;;;;;5115693;28;20052;-11
2022/10/14 01:20:41;;;;;;;2.45;2.00;;;19.80;48.90;;;;;;5135538;28;20103;-10
2022/10/14 01:23:26;;;;;;;;;;;19.80;49.00;;;;;;5136145;28;20083;-10
2022/10/14 01:26:10;;;;;;;2.05;1.85;;;19.80;49.00;;;;;;5134574;27;19923;-10
2022/10/14 01:28:48;;;;;;;3.50;2.10;;;19.70;49.00;;;;;;5135387;28;20088;-10
2022/10/14 01:31:26;;;;;;;2.15;1.88;;;19.70;49.10;;;;;;5135612;28;20074;-10
2022/10/14 01:33:56;;;;;;;2.33;1.88;;;19.70;49.10;;;;;;5135900;28;20100;-10
2022/10/14 01:36:46;;;;;;;2.88;2.15;;;19.70;49.10;;;;;;5117276;28;20050;-10
2022/10/14 01:39:22;;;;;;;2.50;2.08;;;19.70;49.10;;;;;;5116429;28;20047;-11
2022/10/14 01:41:59;;;;;;;1.40;1.30;;;19.80;49.10;;;;;;5135812;28;20057;-10
2022/10/14 01:44:28;;;;;;;2.00;1.80;;;19.70;49.10;;;;;;5115861;28;20492;-10
2022/10/14 01:46:55;;;;;;;2.20;1.90;;;19.80;49.10;;;;;;5115089;28;20051;-10
2022/10/14 01:49:29;;;;;;;2.08;1.88;;;19.70;49.00;;;;;;5135098;28;20055;-10
2022/10/14 01:52:06;;;;;;;2.05;1.77;;;19.70;49.10;;;;;;5135245;28;20112;-10
2022/10/14 01:54:36;;;;;;;3.47;1.95;;;19.70;49.10;;;;;;5115575;28;20058;-10
2022/10/14 01:57:06;;;;;;;;;;;19.70;49.10;;;;;;5135581;28;20051;-11
2022/10/14 01:59:34;;;;;;;2.03;1.88;;;19.70;49.10;;;;;;5115257;28;19922;-10
2022/10/14 02:02:00;;;;;;;2.28;1.70;;;19.80;49.20;;;;;;5116497;28;20101;-11
2022/10/14 02:04:25;;;;;;;1.90;1.75;;;19.70;49.10;;;;;;5134753;28;20494;-10
2022/10/14 02:07:20;;;;;;;2.65;1.90;;;19.70;49.00;;;;;;5134951;28;20440;-10
2022/10/14 02:09:58;;;;;;;2.00;1.80;;;19.70;49.10;;;;;;5116084;28;20054;-10
2022/10/14 02:12:51;;;;;;;1.65;1.55;;;19.70;49.10;;;;;;5116969;28;20470;-10
2022/10/14 02:15:40;;;;;;;2.88;1.67;;;19.70;49.10;;;;;;5099387;28;20055;-10
2022/10/14 02:18:36;;;;;;;2.47;1.90;;;19.70;49.20;;;;;;5114447;28;20039;-10
2022/10/14 02:21:16;;;;;;;2.00;1.80;;;19.70;49.20;;;;;;5116206;28;20051;-10
2022/10/14 02:23:50;;;;;;;2.08;1.88;;;19.70;49.20;;;;;;5135135;28;20069;-10
2022/10/14 02:26:17;;;;;;;2.30;1.90;;;19.70;49.30;;;;;;5116156;28;20554;-10
2022/10/14 02:28:46;;;;;;;1.88;1.67;;;19.70;49.20;;;;;;5115946;28;20058;-10
2022/10/14 02:31:16;;;;;;;2.00;1.80;;;19.70;49.20;;;;;;5115326;28;20048;-10
2022/10/14 02:33:50;;;;;;;2.00;1.80;;;19.70;49.30;;;;;;5114821;28;20118;-10
2022/10/14 02:36:18;;;;;;;2.67;1.83;;;19.70;49.20;;;;;;5116186;28;20382;-10
2022/10/14 02:38:46;;;;;;;1.60;1.50;;;19.70;49.20;;;;;;5114942;28;20051;-10
2022/10/14 02:41:15;;;;;;;1.75;1.65;;;19.70;49.20;;;;;;5134444;28;20105;-10
2022/10/14 02:43:42;;;;;;;1.67;1.58;;;19.70;49.20;;;;;;5134781;28;20070;-10
2022/10/14 02:46:08;;;;;;;2.25;1.55;;;19.70;49.20;;;;;;5134895;28;20093;-10
2022/10/14 02:48:33;;;;;;;2.85;2.22;;;19.70;49.10;;;;;;5115726;28;20479;-10
2022/10/14 02:50:59;;;;;;;1.90;1.80;;;19.70;49.20;;;;;;5114939;28;20142;-10
2022/10/14 02:53:24;;;;;;;1.80;1.60;;;19.70;49.20;;;;;;5115811;28;20082;-10
2022/10/14 02:55:50;;;;;;;2.33;2.08;;;19.70;49.30;;;;;;5116327;28;20055;-10
2022/10/14 02:58:16;;;;;;;1.77;1.67;;;19.70;49.20;;;;;;5115688;28;20380;-10
2022/10/14 03:00:41;;;;;;;2.00;1.80;;;19.70;49.20;;;;;;5134431;28;20047;-10
2022/10/14 03:03:08;;;;;;;1.98;1.55;;;19.70;49.30;;;;;;5115264;28;20510;-10
2022/10/14 03:05:34;;;;;;;2.03;1.80;;;19.70;49.20;;;;;;5115767;28;20043;-10
2022/10/14 03:08:00;;;;;;;2.42;1.80;;;19.70;49.30;;;;;;5115958;28;20055;-10
2022/10/14 03:10:32;;;;;;;1.95;1.80;;;19.70;49.20;;;;;;5115721;28;20196;-10
2022/10/14 03:12:57;;;;;;;2.30;1.77;;;19.70;49.20;;;;;;5134069;28;20058;-10
2022/10/14 03:15:28;;;;;;;2.40;2.20;;;19.70;49.20;;;;;;5115567;28;20529;-10
2022/10/14 03:17:54;;;;;;;1.80;1.52;;;19.70;49.20;;;;;;5115440;28;20039;-10
2022/10/14 03:20:28;;;;;;;1.77;1.65;;;19.70;49.20;;;;;;5113545;28;20051;-10
2022/10/14 03:22:55;;;;;;;1.83;1.70;;;19.80;49.20;;;;;;5115284;28;20076;-10
2022/10/14 03:25:23;;;;;;;2.03;1.83;;;19.80;49.20;;;;;;5115838;28;20083;-10
2022/10/14 03:27:54;;;;;;;2.33;2.13;;;19.80;49.80;;;;;;5115539;28;20051;-11
2022/10/14 03:30:31;;;;;;;2.20;2.00;;;19.80;49.20;;;;;;5115227;28;20062;-10
2022/10/14 03:33:02;;;;;;;;;;;19.80;49.20;;;;;;5114795;28;20058;-10
2022/10/14 03:35:42;;;;;;;3.00;2.10;;;19.80;49.30;;;;;;5100922;28;19916;-10
2022/10/14 03:38:11;;;;;;;4.20;1.83;;;19.80;49.20;;;;;;5115543;28;20055;-10
2022/10/14 03:40:37;;;;;;;1.83;1.73;;;19.80;49.20;;;;;;5114596;28;20382;-10
2022/10/14 03:43:06;;;;;;;2.03;1.55;;;19.80;49.20;;;;;;5114215;28;20094;-10
2022/10/14 03:45:45;;;;;;;3.30;2.25;;;19.80;49.20;;;;;;5115067;28;20103;-10
2022/10/14 03:48:14;;;;;;;2.42;1.80;;;19.90;49.20;;;;;;5115301;28;20073;-11
2022/10/14 03:50:39;;;;;;;2.00;1.80;;;19.90;49.20;;;;;;5117805;28;20052;-10
2022/10/14 03:53:07;;;;;;;2.00;1.80;;;19.90;49.10;;;;;;5119206;28;20047;-10
2022/10/14 03:55:35;;;;;;;1.85;1.70;;;19.90;49.10;;;;;;5118595;28;20486;-10
2022/10/14 03:58:02;;;;;;;1.88;1.65;;;20.00;49.10;;;;;;5118660;28;20108;-10
2022/10/14 04:00:29;;;;;;;2.00;1.60;;;20.00;49.10;;;;;;5119191;28;20043;-10
2022/10/14 04:03:09;;;;;;;2.08;1.88;;;20.00;49.00;;;;;;5118583;28;20107;-10
2022/10/14 04:05:39;;;;;;;3.03;1.60;;;19.90;49.00;;;;;;5118408;28;20095;-10
2022/10/14 04:08:10;;;;;;;2.05;1.67;;;19.90;49.10;;;;;;5117859;28;20445;-10
2022/10/14 04:10:39;;;;;;;2.40;1.60;;;19.90;49.20;;;;;;5118389;28;20043;-10
2022/10/14 04:13:07;;;;;;;1.80;1.70;;;19.90;49.20;;;;;;5116950;28;20074;-10
2022/10/14 04:15:38;;;;;;;1.67;1.55;;;19.90;49.10;;;;;;5118724;28;20437;-10
2022/10/14 04:18:15;;;;;;;2.03;1.73;;;19.90;49.10;;;;;;5118220;28;20051;-10
2022/10/14 04:20:43;;;;;;;3.10;1.95;;;20.00;49.10;;;;;;5117342;28;20056;-10
2022/10/14 04:23:09;;;;;;;2.05;1.85;;;20.00;49.10;;;;;;5116863;28;20052;-10
2022/10/14 04:25:38;;;;;;;1.77;1.67;;;19.90;49.10;;;;;;5118529;28;20051;-10
2022/10/14 04:28:05;;;;;;;1.88;1.77;;;19.90;49.20;;;;;;5117779;28;20046;-11
2022/10/14 04:30:51;;;;;;;2.10;1.80;;;19.90;49.10;;;;;;5118089;28;20051;-10
2022/10/14 04:33:23;;;;;;;2.25;1.98;;;19.90;49.10;;;;;;5136882;28;20051;-10
2022/10/14 04:35:49;;;;;;;2.72;1.65;;;20.00;49.10;;;;;;5118199;28;20047;-10
2022/10/14 04:38:23;;;;;;;1.95;1.58;;;19.90;49.00;;;;;;5136560;28;20043;-11
2022/10/14 04:40:57;;;;;;;2.20;1.95;;;20.00;49.10;;;;;;5117303;28;20089;-10
2022/10/14 04:43:23;;;;;;;2.13;1.90;;;20.00;49.60;;;;;;5116001;28;20062;-10
2022/10/14 04:45:50;;;;;;;1.83;1.70;;;20.00;49.10;;;;;;5118362;28;20047;-10
2022/10/14 04:48:23;;;;;;;1.60;1.48;;;19.90;49.10;;;;;;5117977;28;20054;-11
2022/10/14 04:50:50;;;;;;;1.85;1.67;;;19.90;49.00;;;;;;5117226;28;20043;-10
2022/10/14 04:53:34;;;;;;;2.15;1.95;;;20.00;49.10;;;;;;5136238;28;20053;-10
2022/10/14 04:56:22;;;;;;;2.35;2.15;;;20.00;49.10;;;;;;5118051;28;20051;-10
2022/10/14 04:58:54;;;;;;;1.92;1.73;;;19.90;49.00;;;;;;5115677;28;20083;-10
2022/10/14 05:01:26;;;;;;;2.42;1.80;;;20.00;49.00;;;;;;5115945;28;20043;-10
2022/10/14 05:03:52;;;;;;;2.15;1.95;;;20.00;49.00;;;;;;5118000;28;20503;-10
2022/10/14 05:06:18;;;;;;;2.22;2.00;;;20.00;49.00;;;;;;5117920;28;20051;-10
2022/10/14 05:08:45;;;;;;;1.98;1.63;;;20.00;49.00;;;;;;5117411;28;20050;-11
2022/10/14 05:11:12;;;;;;;2.13;1.90;;;20.00;49.00;;;;;;5117409;28;20059;-11
2022/10/14 05:13:56;;;;;;;1.90;1.70;;;20.00;49.10;;;;;;5118083;28;20039;-11
2022/10/14 05:16:24;;;;;;;1.80;1.70;;;19.90;49.10;;;;;;5117249;28;20051;-11
2022/10/14 05:18:52;;;;;;;2.50;1.88;;;20.00;49.10;;;;;;5117088;28;20043;-11
2022/10/14 05:21:18;;;;;;;2.13;1.70;;;20.00;49.10;;;;;;5116256;28;20055;-11
2022/10/14 05:23:55;;;;;;;1.50;1.40;;;19.90;49.10;;;;;;5117673;28;20047;-11
2022/10/14 05:26:22;;;;;;;2.05;1.85;;;20.00;49.10;;;;;;5117046;28;20501;-11
2022/10/14 05:28:51;;;;;;;2.20;2.00;;;20.00;49.10;;;;;;5117261;28;20188;-11
2022/10/14 05:31:17;;;;;;;2.10;1.90;;;19.90;49.10;;;;;;5117334;28;20387;-11
2022/10/14 05:33:50;;;;;;;2.15;1.70;;;20.00;49.10;;;;;;5117622;28;20047;-11
2022/10/14 05:36:16;;;;;;;1.88;1.77;;;19.90;49.00;;;;;;5117371;28;20053;-11
2022/10/14 05:38:42;;;;;;;2.17;1.98;;;20.00;49.00;;;;;;5135329;28;20393;-11
2022/10/14 05:41:09;;;;;;;2.35;2.08;;;19.90;49.00;;;;;;5116950;28;20131;-11
2022/10/14 05:43:34;;;;;;;1.98;1.70;;;20.00;49.10;;;;;;5116828;28;20084;-11
2022/10/14 05:46:03;;;;;;;1.92;1.83;;;19.90;49.10;;;;;;5117342;28;20138;-11
2022/10/14 05:48:34;;;;;;;1.92;1.73;;;19.90;49.10;;;;;;5117129;28;20411;-11
2022/10/14 05:51:02;;;;;;;2.10;1.88;;;19.90;49.10;;;;;;5117343;28;20054;-11
2022/10/14 05:53:28;;;;;;;1.83;1.73;;;20.00;49.10;;;;;;5116714;28;20054;-11
2022/10/14 05:56:07;;;;;;;1.92;1.73;;;19.90;49.10;;;;;;5116545;28;20059;-12
2022/10/14 05:58:33;;;;;;;2.33;2.10;;;20.00;49.10;;;;;;5116798;28;20116;-11
2022/10/14 06:01:04;;;;;;;1.90;1.80;;;20.00;49.10;;;;;;5116715;28;20512;-11
2022/10/14 06:03:30;;;;;;;1.70;1.60;;;19.90;49.60;;;;;;5134950;28;20054;-11
2022/10/14 06:05:56;;;;;;;1.90;1.80;;;20.00;49.10;;;;;;5115579;28;20086;-13
2022/10/14 06:08:22;;;;;;;2.58;1.75;;;20.00;49.10;;;;;;5116525;28;20082;-11
2022/10/14 06:10:48;;;;;;;1.80;1.70;;;20.00;49.10;;;;;;5113817;28;20052;-11
2022/10/14 06:13:13;;;;;;;1.95;1.67;;;20.00;49.10;;;;;;5115897;28;20055;-11
2022/10/14 06:15:42;;;;;;;1.98;1.88;;;20.00;49.10;;;;;;5116254;28;20059;-11
2022/10/14 06:18:10;;;;;;;2.22;2.03;;;19.90;49.10;;;;;;5134452;28;20043;-11
2022/10/14 06:20:37;;;;;;;1.85;1.60;;;20.00;49.20;;;;;;5116164;28;20051;-11
2022/10/14 06:23:02;;;;;;;2.15;1.98;;;20.00;49.10;;;;;;5134845;28;20470;-11
2022/10/14 06:25:29;;;;;;;2.03;1.77;;;20.00;49.10;;;;;;5134526;28;20123;-11
2022/10/14 06:28:00;;;;;;;2.55;1.70;;;20.00;49.10;;;;;;5134129;28;20062;-11
2022/10/14 06:30:26;;;;;;;2.20;2.00;;;19.90;49.10;;;;;;5115978;28;20184;-11
2022/10/14 06:32:52;;;;;;;2.33;1.92;;;19.90;49.10;;;;;;5134885;28;20134;-11
2022/10/14 06:35:18;;;;;;;2.10;1.92;;;20.00;49.10;;;;;;5134310;28;20608;-11
2022/10/14 06:37:45;;;;;;;2.90;2.03;;;20.00;49.10;;;;;;5116176;28;20130;-11
2022/10/14 06:40:10;;;;;;;2.25;2.05;;;20.00;49.10;;;;;;5134272;28;20410;-11
2022/10/14 06:42:37;;;;;;;2.75;1.92;;;20.00;49.10;;;;;;5134321;28;20047;-11
2022/10/14 06:45:03;;;;;;;2.35;1.90;;;20.00;49.10;;;;;;5134304;28;20104;-11
2022/10/14 06:47:30;;;;;;;2.22;2.00;;;20.00;49.10;;;;;;5134360;28;20047;-11
2022/10/14 06:49:57;;;;;;;1.88;1.77;;;20.00;49.10;;;;;;5134048;28;20051;-11
2022/10/14 06:52:24;;;;;;;2.13;1.92;;;20.00;49.20;;;;;;5134225;28;20051;-11
2022/10/14 06:54:51;;;;;;;1.98;1.88;;;20.00;49.10;;;;;;5134333;28;20047;-11
2022/10/14 06:57:18;;;;;;;1.90;1.70;;;20.00;49.10;;;;;;5134271;28;20086;-11
2022/10/14 06:59:45;;;;;;;2.85;2.10;;;20.00;49.10;;;;;;5134042;28;20050;-11
2022/10/14 07:02:11;;;;;;;2.20;2.00;;;20.00;49.10;;;;;;5133941;28;20051;-11
2022/10/14 07:04:38;;;;;;;2.10;1.90;;;20.00;49.10;;;;;;5134158;28;20490;-11
2022/10/14 07:07:03;;;;;;;2.35;2.15;;;20.00;49.10;;;;;;5133820;28;20137;-11
2022/10/14 07:09:29;;;;;;;2.17;1.70;;;20.00;49.10;;;;;;5133776;28;20131;-11
2022/10/14 07:11:54;;;;;;;2.22;2.03;;;20.00;49.10;;;;;;5134213;28;20054;-11
2022/10/14 07:14:20;;;;;;;2.42;2.20;;;20.00;49.00;;;;;;5134197;28;20480;-11
2022/10/14 07:16:46;;;;;;;2.30;2.08;;;20.00;49.00;;;;;;5133444;28;20051;-11
2022/10/14 07:19:12;;;;;;;2.03;1.80;;;20.10;49.10;;;;;;5133241;28;20051;-11
2022/10/14 07:21:37;;;;;;;2.22;2.03;;;20.10;49.00;;;;;;5133959;28;20055;-11
2022/10/14 07:24:03;;;;;;;2.45;1.90;;;20.10;49.10;;;;;;5133742;27;20050;-11
2022/10/14 07:26:30;;;;;;;1.90;1.75;;;20.10;49.00;;;;;;5133468;28;20047;-11
2022/10/14 07:28:56;;;;;;;2.20;2.00;;;20.10;49.10;;;;;;5133439;28;20069;-11
2022/10/14 07:31:22;;;;;;;2.20;1.98;;;20.10;49.10;;;;;;5133834;28;20486;-11
2022/10/14 07:33:47;;;;;;;2.30;2.10;;;20.10;49.60;;;;;;5134134;28;20432;-11
2022/10/14 07:36:15;;;;;;;2.92;2.38;;;20.10;49.10;;;;;;5133468;28;20055;-11
2022/10/14 07:38:42;;;;;;;2.33;2.03;;;20.00;49.00;;;;;;5133214;28;20047;-11
2022/10/14 07:41:15;;;;;;;2.05;1.85;;;20.10;49.10;;;;;;5133599;28;20058;-11
2022/10/14 07:43:42;;;;;;;2.63;1.67;;;20.10;49.10;;;;;;5133461;28;20051;-11
2022/10/14 07:46:08;;;;;;;3.20;2.22;;;20.10;49.10;;;;;;5133176;28;20406;-11
2022/10/14 07:48:35;;;;;;;2.95;1.80;;;20.10;49.10;;;;;;5133259;28;20091;-11
2022/10/14 07:51:01;;;;;;;1.88;1.77;;;20.10;49.10;;;;;;5133679;28;20083;-11
2022/10/14 07:53:27;;;;;;;2.72;2.05;;;20.10;49.20;;;;;;5133184;28;20054;-10
2022/10/14 07:55:56;;;;;;;2.80;2.17;;;20.10;49.10;;;;;;5133262;28;20406;-10
2022/10/14 07:58:24;;;;;;;2.25;2.05;;;20.10;49.10;;;;;;5132896;28;20058;-11
2022/10/14 08:00:50;;;;;;;2.15;1.92;;;20.10;49.20;;;;;;5133018;28;20092;-10
2022/10/14 08:03:17;;;;;;;2.78;2.42;;;20.10;49.10;;;;;;5132952;28;20096;-10
2022/10/14 08:05:43;;;;;;;3.15;2.22;;;20.10;49.10;;;;;;5133659;28;20604;-10
2022/10/14 08:08:10;;;;;;;3.05;2.20;;;20.10;49.10;;;;;;5132839;28;20101;-11
2022/10/14 08:10:37;;;;;;;2.58;2.38;;;20.10;49.10;;;;;;5132908;28;20447;-10
2022/10/14 08:13:03;;;;;;;2.10;2.00;;;20.10;49.00;;;;;;5133170;28;20058;-10
2022/10/14 08:15:37;;;;;;;2.33;2.13;;;20.20;49.00;;;;;;5133558;28;20043;-10
2022/10/14 08:18:04;;;;;;;2.85;2.20;;;20.20;48.90;;;;;;5132969;28;20091;-10
2022/10/14 08:20:31;;;;;;;3.08;2.15;;;20.20;48.90;;;;;;5132943;28;20482;-10
2022/10/14 08:22:57;;;;;;;2.45;2.10;;;20.30;48.90;;;;;;5133440;28;20479;-10
2022/10/14 08:25:23;;;;;;;2.50;2.28;;;20.30;48.80;;;;;;5132694;28;20051;-11
2022/10/14 08:27:53;;;;;;;3.50;2.20;;;20.30;48.80;;;;;;5132550;28;20047;-10
2022/10/14 08:30:19;;;;;;;3.05;2.45;;;20.30;48.70;;;;;;5132880;28;20047;-10
2022/10/14 08:32:44;;;;;;;2.53;2.33;;;20.30;48.70;;;;;;5132818;28;20058;-10
2022/10/14 08:35:10;;;;;;;4.38;2.35;;;20.30;48.70;;;;;;5135231;27;20051;-10
2022/10/14 08:37:36;;;;;;;2.60;2.13;;;20.30;48.80;;;;;;5136235;28;20498;-11
2022/10/14 08:40:03;;;;;;;2.55;2.35;;;20.30;48.70;;;;;;5136247;28;20479;-10
2022/10/14 08:42:47;;;;;;;2.75;2.05;;;20.40;48.70;;;;;;5136528;28;20051;-10
2022/10/14 08:45:18;;;;;;;3.35;2.38;;;20.40;48.70;;;;;;5136400;28;20133;-10
2022/10/14 08:47:45;;;;;;;2.67;2.38;;;20.40;48.70;;;;;;5136442;28;20073;-10
2022/10/14 08:50:31;;;;;;;3.72;2.63;;;20.40;48.70;;;;;;5136301;28;20062;-10
2022/10/14 08:53:27;;;;;;;2.60;2.40;;;20.40;48.70;;;;;;5136385;28;20043;-10
2022/10/14 08:55:59;;;;;;;2.88;2.30;;;20.40;48.70;;;;;;5135815;28;20065;-10
2022/10/14 08:58:47;;;;;;;2.65;2.45;;;20.40;48.70;;;;;;5136114;28;20082;-10
2022/10/14 09:01:31;;;;;;;2.72;2.15;;;20.40;48.60;;;;;;5136279;28;20059;-10
2022/10/14 09:04:04;;;;;;;3.47;2.67;;;20.50;48.70;;;;;;5135895;28;20159;-10
2022/10/14 09:06:37;;;;;;;2.88;2.50;;;20.40;48.70;;;;;;5135646;28;20406;-10
2022/10/14 09:09:25;;;;;;;3.78;2.67;;;20.40;48.70;;;;;;5135777;28;20560;-10
2022/10/14 09:12:00;;;;;;;2.53;2.33;;;20.40;48.70;;;;;;5135614;28;20055;-10
2022/10/14 09:14:33;;;;;;;4.45;2.47;;;20.40;48.70;;;;;;5135873;28;20047;-10
2022/10/14 09:17:13;;;;;;;3.08;2.65;;;20.40;48.90;;;;;;5115597;28;20062;-10
2022/10/14 09:19:46;;;;;;;3.13;2.60;;;20.40;48.80;;;;;;5136028;28;20402;-10
2022/10/14 09:22:14;;;;;;;3.03;2.47;;;20.40;48.70;;;;;;5135952;28;20062;-10
2022/10/14 09:24:41;;;;;;;3.13;2.45;;;20.50;48.80;;;;;;5135501;28;20039;-10
2022/10/14 09:27:14;;;;;;;3.03;2.45;;;20.40;48.80;;;;;;5135207;28;20043;-10
2022/10/14 09:29:59;;;;;;;3.60;2.70;;;20.40;48.80;;;;;;5135066;28;20039;-10
2022/10/14 09:32:46;;;;;;;3.15;2.85;;;20.40;48.80;;;;;;5135532;28;20559;-10
2022/10/14 09:35:20;;;;;;;2.50;2.25;;;20.50;48.80;;;;;;5135424;28;20517;-10
2022/10/14 09:37:45;;;;;;;3.28;2.75;;;20.50;48.80;;;;;;5135215;28;20075;-10
2022/10/14 09:40:11;;;;;;;3.38;2.60;;;20.50;48.70;;;;;;5135727;28;20051;-10
2022/10/14 09:43:12;;;;;;;4.03;2.83;;;20.50;48.70;;;;;;5135616;28;20395;-10
2022/10/14 09:45:52;;;;;;;3.38;2.70;;;20.50;48.70;;;;;;5134096;27;20054;-11
2022/10/14 09:48:43;;;;;;;3.70;3.03;;;20.50;48.70;;;;;;5135140;28;20051;-11
2022/10/14 09:51:20;;;;;;;3.33;2.63;;;20.50;48.70;;;;;;5135044;28;20079;-11
2022/10/14 09:53:57;;;;;;;3.63;2.75;;;20.50;48.70;;;;;;5135510;28;20549;-11
2022/10/14 09:56:33;;;;;;;3.08;2.78;;;20.50;48.80;;;;;;5135328;28;20051;-11
2022/10/14 09:59:00;;;;;;;2.85;2.47;;;20.50;48.80;;;;;;5135036;28;20079;-10
2022/10/14 10:01:30;;;;;;;3.67;2.65;;;20.50;48.80;;;;;;5115408;28;20399;-11
2022/10/14 10:03:56;;;;;;;3.17;2.88;;;20.50;48.80;;;;;;5135176;28;20473;-11
2022/10/14 10:06:24;;;;;;;4.20;2.97;;;20.50;48.80;;;;;;5134829;28;20134;-11
2022/10/14 10:08:53;;;;;;;5.03;3.10;;;20.50;48.80;;;;;;5134689;28;20051;-11
2022/10/14 10:11:27;;;;;;;3.00;2.40;;;20.50;48.70;;;;;;5135262;28;20050;-11
2022/10/14 10:13:53;;;;;;;2.90;2.65;;;20.50;48.80;;;;;;5134639;28;20047;-11
2022/10/14 10:16:20;;;;;;;3.33;3.03;;;20.50;48.80;;;;;;5134565;28;20184;-11
2022/10/14 10:18:48;;;;;;;4.50;3.05;;;20.50;48.80;;;;;;5134515;28;20451;-11
2022/10/14 10:21:23;;;;;;;5.22;3.45;;;20.60;48.80;;;;;;5134596;28;20087;-11
2022/10/14 10:23:53;;;;;;;3.30;3.00;;;20.60;49.30;;;;;;5134846;28;20592;-11
2022/10/14 10:26:32;;;;;;;3.85;2.90;;;20.60;48.80;;;;;;5134769;28;20059;-11
2022/10/14 10:29:01;;;;;;;2.95;2.47;;;20.50;48.80;;;;;;5134488;28;20050;-11
2022/10/14 10:31:46;;;;;;;2.92;2.53;;;20.50;48.80;;;;;;5134806;28;20062;-11
2022/10/14 10:34:17;;;;;;;3.30;2.53;;;20.50;48.90;;;;;;5134334;28;20078;-11
2022/10/14 10:37:18;;;;;;;3.08;2.63;;;20.50;48.90;;;;;;5134570;28;20079;-11
2022/10/14 10:39:50;;;;;;;3.47;2.75;;;20.50;48.90;;;;;;5130163;28;20051;-11
2022/10/14 10:42:50;;;;;;;3.15;2.65;;;20.50;48.80;;;;;;5134586;28;20054;-11
2022/10/14 10:45:48;;;;;;;3.88;2.90;;;20.50;48.80;;;;;;5134145;28;20055;-11
2022/10/14 10:48:24;;;;;;;3.38;2.85;;;20.60;48.90;;;;;;5128435;28;20483;-11
2022/10/14 10:51:00;;;;;;;3.20;2.90;;;20.50;48.80;;;;;;5134215;28;20059;-11
2022/10/14 10:53:45;;;;;;;4.20;2.90;;;20.50;48.80;;;;;;5134313;28;20108;-11
2022/10/14 10:56:37;;;;;;;5.63;3.10;;;20.50;48.90;;;;;;5134241;28;20062;-11
2022/10/14 10:59:34;;;;;;;3.50;2.78;;;20.50;48.90;;;;;;5133140;28;20150;-11
2022/10/14 11:02:22;;;;;;;6.72;3.33;;;20.60;48.90;;;;;;5133669;28;20079;-11
2022/10/14 11:05:07;;;;;;;5.28;2.63;;;20.60;48.90;;;;;;5133819;28;20487;-11
2022/10/14 11:13:55;;;;;;;3.38;2.70;;;20.60;48.90;;;;;;5133584;28;20078;-11
2022/10/14 11:16:29;;;;;;;4.75;3.35;;;20.60;49.10;;;;;;5134058;28;20047;-11
2022/10/14 11:19:16;;;;;;;4.07;3.00;;;20.60;49.00;;;;;;5133538;28;20046;-11
2022/10/14 11:21:48;;;;;;;3.20;2.90;;;20.50;49.00;;;;;;5133709;28;20538;-11
2022/10/14 11:24:39;;;;;;;4.10;2.85;;;20.50;49.00;;;;;;5133361;28;20535;-11
2022/10/14 11:27:33;;;;;;;3.45;3.00;;;20.50;49.00;;;;;;5133433;28;20138;-11
2022/10/14 11:30:12;;;;;;;3.22;2.83;;;20.50;49.10;;;;;;5133485;28;20560;-11
2022/10/14 11:33:16;;;;;;;3.72;3.10;;;20.50;49.10;;;;;;5133780;28;20074;-11
2022/10/14 11:36:10;;;;;;;3.28;2.75;;;20.50;49.10;;;;;;5114998;28;20051;-12
2022/10/14 11:38:44;;;;;;;3.13;2.80;;;20.50;49.20;;;;;;5097588;28;20577;-12
2022/10/14 11:41:39;;;;;;;3.38;3.08;;;20.50;49.20;;;;;;5133586;28;20534;-12
2022/10/14 11:44:17;;;;;;;4.55;2.70;;;20.50;49.20;;;;;;5133650;28;20092;-12
2022/10/14 11:46:48;;;;;;;3.42;3.13;;;20.50;49.30;;;;;;5133550;28;20055;-12
2022/10/14 11:49:28;;;;;;;3.20;2.83;;;20.50;49.30;;;;;;5133142;28;20051;-12
2022/10/14 11:52:01;;;;;;;3.42;2.90;;;20.50;49.20;;;;;;5113273;28;20458;-11
2022/10/14 11:54:38;;;;;;;2.95;2.65;;;20.50;49.20;;;;;;5132953;28;20054;-10
2022/10/14 11:57:45;;;;;;;3.38;2.92;;;20.50;49.20;;;;;;5133493;28;20043;-10
2022/10/14 12:00:15;;;;;;;3.05;2.65;;;20.60;49.20;;;;;;5087165;28;20445;-10
2022/10/14 12:03:35;;;;;;;3.55;3.20;;;20.60;49.20;;;;;;5133109;28;20065;-10
2022/10/14 12:06:10;;;;;;;3.40;2.97;;;20.60;49.20;;;;;;5133393;28;20043;-10
2022/10/14 12:09:01;;;;;;;3.85;2.85;;;20.60;49.20;;;;;;5132659;27;20043;-10
2022/10/14 12:11:48;;;;;;;3.85;3.17;;;20.60;49.30;;;;;;5136737;28;20043;-10
2022/10/14 12:14:23;;;;;;;2.92;2.60;;;20.60;49.30;;;;;;5136701;28;20112;-10
2022/10/14 12:16:49;;;;;;;4.38;3.45;;;20.50;49.30;;;;;;5136849;28;20055;-10
2022/10/14 12:19:25;;;;;;;4.45;3.38;;;20.60;49.40;;;;;;5136305;28;20075;-10
2022/10/14 12:22:01;;;;;;;3.20;2.80;;;20.60;49.30;;;;;;5136427;28;20133;-10
2022/10/14 12:24:38;;;;;;;3.47;2.88;;;20.60;49.40;;;;;;5136771;28;20047;-10
2022/10/14 12:27:09;;;;;;;4.22;2.72;;;20.60;49.40;;;;;;5136071;28;20051;-10
2022/10/14 12:29:45;;;;;;;2.70;2.37;;;20.60;49.50;;;;;;5136673;28;20134;-10
2022/10/14 12:32:29;;;;;;;3.67;2.90;;;20.60;49.40;;;;;;5136620;28;20050;-10
2022/10/14 12:35:00;;;;;;;3.80;2.78;;;20.60;49.40;;;;;;5136455;28;20433;-11
2022/10/14 12:37:33;;;;;;;3.58;3.10;;;20.60;49.40;;;;;;5136248;28;20043;-11
2022/10/14 12:40:02;;;;;;;3.08;2.78;;;20.60;49.40;;;;;;5136294;28;20055;-10
2022/10/14 12:42:29;;;;;;;3.85;3.10;;;20.60;49.40;;;;;;5136194;28;20051;-10
2022/10/14 12:44:57;;;;;;;3.95;3.00;;;20.70;49.50;;;;;;5135951;28;20434;-10
2022/10/14 12:47:28;;;;;;;6.35;3.47;;;20.60;49.50;;;;;;5136253;28;20054;-10
2022/10/14 12:50:03;;;;;;;3.90;3.20;;;20.60;49.50;;;;;;5136180;28;20059;-11
2022/10/14 12:52:37;;;;;;;4.80;3.30;;;20.60;49.50;;;;;;5136035;28;20046;-10
2022/10/14 12:55:24;;;;;;;4.15;3.40;;;20.70;49.50;;;;;;5136028;28;20061;-10
2022/10/14 12:57:57;;;;;;;5.10;3.08;;;20.70;49.50;;;;;;5117029;28;20051;-10
2022/10/14 13:00:22;;;;;;;3.60;2.90;;;20.70;50.00;;;;;;5117342;28;20058;-10
2022/10/14 13:02:51;;;;;;;4.53;3.30;;;20.70;49.50;;;;;;5135685;28;20047;-10
2022/10/14 13:05:36;;;;;;;4.18;3.22;;;20.70;49.50;;;;;;5135952;28;20049;-10
2022/10/14 13:08:10;;;;;;;4.70;3.47;;;20.80;49.50;;;;;;5135671;28;20483;-10
2022/10/14 13:10:39;;;;;;;5.55;3.45;;;20.80;49.70;;;;;;5135633;28;20487;-10
2022/10/14 13:13:46;;;;;;;4.85;3.75;;;20.80;49.90;;;;;;5135971;28;20055;-10
2022/10/14 13:16:23;;;;;;;7.85;3.63;;;20.70;50.30;;;;;;5135629;28;20178;-10
2022/10/14 13:18:59;;;;;;;6.82;3.65;;;20.70;50.30;;;;;;5135579;28;20503;-10
2022/10/14 13:21:52;;;;;;;7.00;4.13;;;20.70;50.30;;;;;;5135308;27;20065;-10